createdAt,value
2023-01-11T12:08:51.606Z,18.06
2023-01-11T12:11:41.419Z,17.88
2023-01-11T12:14:12.490Z,17.84
2023-01-11T12:16:42.368Z,17.77
2023-01-11T12:19:31.322Z,17.70
2023-01-11T12:22:23.075Z,17.52
2023-01-11T12:25:16.934Z,17.47
2023-01-11T12:28:18.655Z,17.46
2023-01-11T12:31:05.705Z,17.51
2023-01-11T12:34:31.607Z,17.55
2023-01-11T12:37:21.272Z,17.57
2023-01-11T12:40:13.965Z,17.49
2023-01-11T12:43:05.527Z,17.42
2023-01-11T12:46:11.517Z,17.40
2023-01-11T12:48:46.387Z,17.41
2023-01-11T12:51:51.618Z,17.62
2023-01-11T12:54:26.169Z,17.72
2023-01-11T12:57:22.304Z,17.76
2023-01-11T13:00:39.310Z,17.65
2023-01-11T13:03:35.095Z,17.66
2023-01-11T13:06:18.827Z,17.71
2023-01-11T13:08:59.192Z,17.73
2023-01-11T13:11:44.385Z,17.77
2023-01-11T13:14:16.804Z,17.65
2023-01-11T13:17:10.507Z,17.73
2023-01-11T13:19:51.783Z,17.39
2023-01-11T13:22:20.469Z,17.13
2023-01-11T13:24:49.137Z,16.93
2023-01-11T13:27:22.898Z,16.76
2023-01-11T13:29:57.082Z,16.66
2023-01-11T13:32:31.010Z,16.60
2023-01-11T13:35:17.613Z,16.85
2023-01-11T13:38:14.350Z,17.04
2023-01-11T13:40:53.573Z,17.04
2023-01-11T13:43:40.003Z,17.00
2023-01-11T13:46:32.799Z,16.95
2023-01-11T13:49:18.891Z,16.81
2023-01-11T13:52:05.249Z,16.72
2023-01-11T13:54:41.316Z,16.74
2023-01-11T13:57:14.414Z,17.12
2023-01-11T13:59:46.618Z,17.21
2023-01-11T14:02:41.660Z,17.14
2023-01-11T14:05:18.810Z,17.03
2023-01-11T14:08:38.190Z,16.97
2023-01-11T14:11:26.747Z,17.02
2023-01-11T14:14:18.515Z,17.02
2023-01-11T14:16:47.834Z,17.19
2023-01-11T14:19:49.950Z,17.04
2023-01-11T14:22:43.741Z,16.97
2023-01-11T14:25:17.868Z,17.05
2023-01-11T14:28:24.008Z,16.97
2023-01-11T14:31:08.954Z,17.00
2023-01-11T14:33:54.364Z,17.18
2023-01-11T14:36:47.008Z,17.05
2023-01-11T14:39:54.555Z,17.04
2023-01-11T14:42:48.039Z,17.07
2023-01-11T14:45:25.789Z,17.00
2023-01-11T14:48:18.439Z,16.96
2023-01-11T14:51:06.466Z,16.93
2023-01-11T14:53:38.667Z,16.95
2023-01-11T14:56:53.548Z,17.05
2023-01-11T14:59:27.866Z,17.29
2023-01-11T15:02:05.649Z,17.24
2023-01-11T15:05:00.633Z,17.34
2023-01-11T15:07:34.272Z,17.46
